Terminal Aerodrome Forecast
Issued by NWS Twin Cities, MN

Home | Current Version | Previous Version | Graphics & Text | Print | Product List | Glossary On
Versions: 1 2 3 4 5 6 7 8 9 10 11 12 13 14 15 16 17 18 19 20 21 22 23 24 25 26 27 28
000
FTUS43 KMPX 290706 AAA
TAFMSP
TAF AMD
KMSP 290706Z 2907/3012 19008KT P6SM -SHRA OVC060
     FM291100 20007KT P6SM OVC020
     FM291700 28010G18KT 6SM -SHRA BR VCTS OVC018CB
      TEMPO 2917/2920 5SM -TSRA
     FM292000 34015G23KT P6SM VCSH BKN025
     FM292200 35015KT P6SM FEW030=

USA.gov is the U.S. government's official web portal to all federal, state and local government web resources and services.